sensor_id;sensor_type;location;lat;lon;timestamp;P1;durP1;ratioP1;P2;durP2;ratioP2
43650;SDS011;29247;50.944;5.382;2022-08-05T00:00:26;4.28;;;2.53;;
43650;SDS011;29247;50.944;5.382;2022-08-05T00:02:54;3.67;;;2.20;;
43650;SDS011;29247;50.944;5.382;2022-08-05T00:05:22;5.78;;;2.70;;
43650;SDS011;29247;50.944;5.382;2022-08-05T00:07:50;2.83;;;2.50;;
43650;SDS011;29247;50.944;5.382;2022-08-05T00:10:16;3.95;;;2.30;;
43650;SDS011;29247;50.944;5.382;2022-08-05T00:12:42;4.47;;;2.67;;
43650;SDS011;29247;50.944;5.382;2022-08-05T00:15:10;4.40;;;3.10;;
43650;SDS011;29247;50.944;5.382;2022-08-05T00:17:36;3.88;;;2.67;;
43650;SDS011;29247;50.944;5.382;2022-08-05T00:20:01;4.88;;;3.63;;
43650;SDS011;29247;50.944;5.382;2022-08-05T00:22:32;3.47;;;2.97;;
43650;SDS011;29247;50.944;5.382;2022-08-05T00:25:00;5.50;;;2.42;;
43650;SDS011;29247;50.944;5.382;2022-08-05T00:27:26;3.97;;;2.40;;
43650;SDS011;29247;50.944;5.382;2022-08-05T00:29:54;5.32;;;2.50;;
43650;SDS011;29247;50.944;5.382;2022-08-05T00:32:20;4.93;;;2.83;;
43650;SDS011;29247;50.944;5.382;2022-08-05T00:34:46;2.67;;;2.10;;
43650;SDS011;29247;50.944;5.382;2022-08-05T00:37:14;4.93;;;2.30;;
43650;SDS011;29247;50.944;5.382;2022-08-05T00:39:40;11.15;;;2.90;;
43650;SDS011;29247;50.944;5.382;2022-08-05T00:42:08;3.58;;;2.60;;
43650;SDS011;29247;50.944;5.382;2022-08-05T00:44:34;5.18;;;2.65;;
43650;SDS011;29247;50.944;5.382;2022-08-05T00:47:00;4.15;;;2.20;;
43650;SDS011;29247;50.944;5.382;2022-08-05T00:49:25;4.22;;;3.03;;
43650;SDS011;29247;50.944;5.382;2022-08-05T00:51:53;3.80;;;2.75;;
43650;SDS011;29247;50.944;5.382;2022-08-05T00:54:21;5.28;;;2.45;;
43650;SDS011;29247;50.944;5.382;2022-08-05T00:56:47;6.13;;;2.90;;
43650;SDS011;29247;50.944;5.382;2022-08-05T00:59:15;4.00;;;2.30;;
43650;SDS011;29247;50.944;5.382;2022-08-05T01:01:41;4.50;;;2.38;;
43650;SDS011;29247;50.944;5.382;2022-08-05T01:04:07;2.58;;;1.92;;
43650;SDS011;29247;50.944;5.382;2022-08-05T01:06:34;7.35;;;3.00;;
43650;SDS011;29247;50.944;5.382;2022-08-05T01:09:02;4.45;;;3.00;;
43650;SDS011;29247;50.944;5.382;2022-08-05T01:11:31;3.83;;;2.38;;
43650;SDS011;29247;50.944;5.382;2022-08-05T01:16:48;3.45;;;2.35;;
43650;SDS011;29247;50.944;5.382;2022-08-05T01:27:06;5.78;;;3.38;;
43650;SDS011;29247;50.944;5.382;2022-08-05T01:29:51;5.25;;;3.10;;
43650;SDS011;29247;50.944;5.382;2022-08-05T01:32:21;6.32;;;3.28;;
43650;SDS011;29247;50.944;5.382;2022-08-05T01:34:58;6.35;;;2.80;;
43650;SDS011;29247;50.944;5.382;2022-08-05T01:40:19;3.97;;;2.58;;
43650;SDS011;29247;50.944;5.382;2022-08-05T01:42:50;3.67;;;2.95;;
43650;SDS011;29247;50.944;5.382;2022-08-05T01:45:19;3.47;;;2.90;;
43650;SDS011;29247;50.944;5.382;2022-08-05T01:47:47;11.18;;;2.92;;
43650;SDS011;29247;50.944;5.382;2022-08-05T01:53:01;5.75;;;3.70;;
43650;SDS011;29247;50.944;5.382;2022-08-05T01:55:31;5.88;;;3.30;;
43650;SDS011;29247;50.944;5.382;2022-08-05T01:57:57;3.75;;;3.42;;
43650;SDS011;29247;50.944;5.382;2022-08-05T02:00:30;4.63;;;3.17;;
43650;SDS011;29247;50.944;5.382;2022-08-05T02:02:59;6.03;;;2.85;;
43650;SDS011;29247;50.944;5.382;2022-08-05T02:05:29;3.95;;;3.10;;
43650;SDS011;29247;50.944;5.382;2022-08-05T02:07:56;3.88;;;3.30;;
43650;SDS011;29247;50.944;5.382;2022-08-05T02:10:24;6.70;;;3.53;;
43650;SDS011;29247;50.944;5.382;2022-08-05T02:13:00;5.50;;;3.10;;
43650;SDS011;29247;50.944;5.382;2022-08-05T02:15:34;5.65;;;3.47;;
43650;SDS011;29247;50.944;5.382;2022-08-05T02:18:13;7.20;;;3.30;;
43650;SDS011;29247;50.944;5.382;2022-08-05T02:21:14;5.40;;;3.53;;
43650;SDS011;29247;50.944;5.382;2022-08-05T02:23:43;5.57;;;3.22;;
43650;SDS011;29247;50.944;5.382;2022-08-05T02:26:12;7.93;;;3.90;;
43650;SDS011;29247;50.944;5.382;2022-08-05T02:28:42;5.40;;;3.35;;
43650;SDS011;29247;50.944;5.382;2022-08-05T02:31:42;4.10;;;3.33;;
43650;SDS011;29247;50.944;5.382;2022-08-05T02:34:05;4.43;;;3.83;;
43650;SDS011;29247;50.944;5.382;2022-08-05T02:36:41;5.22;;;4.40;;
43650;SDS011;29247;50.944;5.382;2022-08-05T02:39:20;6.07;;;3.72;;
43650;SDS011;29247;50.944;5.382;2022-08-05T02:41:52;6.25;;;3.65;;
43650;SDS011;29247;50.944;5.382;2022-08-05T02:44:23;7.15;;;3.83;;
43650;SDS011;29247;50.944;5.382;2022-08-05T02:46:50;6.18;;;3.97;;
43650;SDS011;29247;50.944;5.382;2022-08-05T02:49:18;6.00;;;3.72;;
43650;SDS011;29247;50.944;5.382;2022-08-05T02:51:47;6.75;;;4.13;;
43650;SDS011;29247;50.944;5.382;2022-08-05T02:54:16;7.45;;;3.40;;
43650;SDS011;29247;50.944;5.382;2022-08-05T02:56:44;5.18;;;3.53;;
43650;SDS011;29247;50.944;5.382;2022-08-05T02:59:10;6.53;;;4.10;;
43650;SDS011;29247;50.944;5.382;2022-08-05T03:01:39;6.78;;;3.85;;
43650;SDS011;29247;50.944;5.382;2022-08-05T03:04:11;6.95;;;3.97;;
43650;SDS011;29247;50.944;5.382;2022-08-05T03:06:39;5.90;;;3.92;;
43650;SDS011;29247;50.944;5.382;2022-08-05T03:09:06;4.63;;;3.67;;
43650;SDS011;29247;50.944;5.382;2022-08-05T03:11:35;6.63;;;3.67;;
43650;SDS011;29247;50.944;5.382;2022-08-05T03:14:05;5.75;;;3.80;;
43650;SDS011;29247;50.944;5.382;2022-08-05T03:16:33;6.97;;;3.90;;
43650;SDS011;29247;50.944;5.382;2022-08-05T03:18:59;6.35;;;3.60;;
43650;SDS011;29247;50.944;5.382;2022-08-05T03:21:25;6.45;;;3.63;;
43650;SDS011;29247;50.944;5.382;2022-08-05T03:23:53;6.65;;;3.50;;
43650;SDS011;29247;50.944;5.382;2022-08-05T03:26:19;3.63;;;3.13;;
43650;SDS011;29247;50.944;5.382;2022-08-05T03:28:47;6.97;;;3.70;;
43650;SDS011;29247;50.944;5.382;2022-08-05T03:31:13;6.05;;;3.92;;
43650;SDS011;29247;50.944;5.382;2022-08-05T03:36:08;8.32;;;3.60;;
43650;SDS011;29247;50.944;5.382;2022-08-05T03:38:42;7.22;;;4.32;;
43650;SDS011;29247;50.944;5.382;2022-08-05T03:41:14;6.47;;;3.75;;
43650;SDS011;29247;50.944;5.382;2022-08-05T03:43:41;4.53;;;3.65;;
43650;SDS011;29247;50.944;5.382;2022-08-05T03:46:07;6.40;;;4.13;;
43650;SDS011;29247;50.944;5.382;2022-08-05T03:48:32;6.60;;;4.10;;
43650;SDS011;29247;50.944;5.382;2022-08-05T03:53:40;4.65;;;3.72;;
43650;SDS011;29247;50.944;5.382;2022-08-05T03:56:16;9.18;;;4.22;;
43650;SDS011;29247;50.944;5.382;2022-08-05T03:58:56;6.28;;;4.40;;
43650;SDS011;29247;50.944;5.382;2022-08-05T04:01:28;5.72;;;4.38;;
43650;SDS011;29247;50.944;5.382;2022-08-05T04:03:56;5.55;;;4.47;;
43650;SDS011;29247;50.944;5.382;2022-08-05T04:06:23;7.90;;;4.47;;
43650;SDS011;29247;50.944;5.382;2022-08-05T04:08:52;4.53;;;4.05;;
43650;SDS011;29247;50.944;5.382;2022-08-05T04:11:21;6.03;;;4.53;;
43650;SDS011;29247;50.944;5.382;2022-08-05T04:13:51;6.18;;;4.70;;
43650;SDS011;29247;50.944;5.382;2022-08-05T04:16:18;6.22;;;4.65;;
43650;SDS011;29247;50.944;5.382;2022-08-05T04:18:44;6.45;;;5.80;;
43650;SDS011;29247;50.944;5.382;2022-08-05T04:21:13;6.72;;;5.15;;
43650;SDS011;29247;50.944;5.382;2022-08-05T04:23:38;6.70;;;5.10;;
43650;SDS011;29247;50.944;5.382;2022-08-05T04:26:07;9.00;;;5.50;;
43650;SDS011;29247;50.944;5.382;2022-08-05T04:28:36;7.85;;;5.50;;
43650;SDS011;29247;50.944;5.382;2022-08-05T04:31:02;9.85;;;5.40;;
43650;SDS011;29247;50.944;5.382;2022-08-05T04:33:27;9.75;;;5.40;;
43650;SDS011;29247;50.944;5.382;2022-08-05T04:35:56;7.75;;;5.57;;
43650;SDS011;29247;50.944;5.382;2022-08-05T04:38:21;12.13;;;5.50;;
43650;SDS011;29247;50.944;5.382;2022-08-05T04:40:49;11.32;;;5.38;;
43650;SDS011;29247;50.944;5.382;2022-08-05T04:43:17;9.65;;;5.50;;
43650;SDS011;29247;50.944;5.382;2022-08-05T04:45:43;9.30;;;5.50;;
43650;SDS011;29247;50.944;5.382;2022-08-05T04:48:09;5.60;;;4.82;;
43650;SDS011;29247;50.944;5.382;2022-08-05T04:50:43;7.15;;;5.10;;
43650;SDS011;29247;50.944;5.382;2022-08-05T04:53:13;7.35;;;5.13;;
43650;SDS011;29247;50.944;5.382;2022-08-05T04:55:42;9.67;;;5.30;;
43650;SDS011;29247;50.944;5.382;2022-08-05T04:58:12;6.20;;;4.97;;
43650;SDS011;29247;50.944;5.382;2022-08-05T05:00:39;10.07;;;5.15;;
43650;SDS011;29247;50.944;5.382;2022-08-05T05:03:06;8.00;;;5.22;;
43650;SDS011;29247;50.944;5.382;2022-08-05T05:05:34;9.57;;;5.75;;
43650;SDS011;29247;50.944;5.382;2022-08-05T05:08:01;8.80;;;5.25;;
43650;SDS011;29247;50.944;5.382;2022-08-05T05:10:38;7.13;;;4.93;;
43650;SDS011;29247;50.944;5.382;2022-08-05T05:13:06;7.20;;;4.85;;
43650;SDS011;29247;50.944;5.382;2022-08-05T05:15:36;10.63;;;5.30;;
43650;SDS011;29247;50.944;5.382;2022-08-05T05:18:05;10.93;;;5.45;;
43650;SDS011;29247;50.944;5.382;2022-08-05T05:20:31;6.20;;;4.80;;
43650;SDS011;29247;50.944;5.382;2022-08-05T05:23:02;8.93;;;4.78;;
43650;SDS011;29247;50.944;5.382;2022-08-05T05:25:28;7.78;;;4.88;;
43650;SDS011;29247;50.944;5.382;2022-08-05T05:27:59;12.00;;;4.90;;
43650;SDS011;29247;50.944;5.382;2022-08-05T05:30:25;7.10;;;4.82;;
43650;SDS011;29247;50.944;5.382;2022-08-05T05:32:51;8.38;;;5.43;;
43650;SDS011;29247;50.944;5.382;2022-08-05T05:35:19;7.47;;;5.03;;
43650;SDS011;29247;50.944;5.382;2022-08-05T05:37:53;7.28;;;5.53;;
43650;SDS011;29247;50.944;5.382;2022-08-05T05:40:24;9.18;;;5.75;;
43650;SDS011;29247;50.944;5.382;2022-08-05T05:42:52;10.48;;;5.47;;
43650;SDS011;29247;50.944;5.382;2022-08-05T05:45:19;7.95;;;5.40;;
43650;SDS011;29247;50.944;5.382;2022-08-05T05:47:47;8.23;;;5.55;;
43650;SDS011;29247;50.944;5.382;2022-08-05T05:50:17;8.40;;;5.10;;
43650;SDS011;29247;50.944;5.382;2022-08-05T05:52:45;6.57;;;4.85;;
43650;SDS011;29247;50.944;5.382;2022-08-05T05:55:15;9.43;;;5.47;;
43650;SDS011;29247;50.944;5.382;2022-08-05T05:57:42;6.97;;;5.25;;
43650;SDS011;29247;50.944;5.382;2022-08-05T06:00:10;7.95;;;5.70;;
43650;SDS011;29247;50.944;5.382;2022-08-05T06:02:38;6.70;;;4.88;;
43650;SDS011;29247;50.944;5.382;2022-08-05T06:05:08;8.05;;;4.55;;
43650;SDS011;29247;50.944;5.382;2022-08-05T06:07:39;7.65;;;4.85;;
43650;SDS011;29247;50.944;5.382;2022-08-05T06:10:08;6.85;;;5.80;;
43650;SDS011;29247;50.944;5.382;2022-08-05T06:12:37;7.80;;;4.70;;
43650;SDS011;29247;50.944;5.382;2022-08-05T06:15:05;6.63;;;5.63;;
43650;SDS011;29247;50.944;5.382;2022-08-05T06:17:32;6.78;;;4.78;;
43650;SDS011;29247;50.944;5.382;2022-08-05T06:20:01;6.70;;;4.20;;
43650;SDS011;29247;50.944;5.382;2022-08-05T06:22:31;8.93;;;5.15;;
43650;SDS011;29247;50.944;5.382;2022-08-05T06:24:58;6.32;;;4.10;;
43650;SDS011;29247;50.944;5.382;2022-08-05T06:27:25;5.93;;;4.00;;
43650;SDS011;29247;50.944;5.382;2022-08-05T06:29:51;6.45;;;3.85;;
43650;SDS011;29247;50.944;5.382;2022-08-05T06:32:18;7.28;;;3.60;;
43650;SDS011;29247;50.944;5.382;2022-08-05T06:34:45;4.88;;;3.17;;
43650;SDS011;29247;50.944;5.382;2022-08-05T06:37:10;6.20;;;3.72;;
43650;SDS011;29247;50.944;5.382;2022-08-05T06:39:38;4.55;;;2.80;;
43650;SDS011;29247;50.944;5.382;2022-08-05T06:42:04;4.13;;;3.35;;
43650;SDS011;29247;50.944;5.382;2022-08-05T06:44:32;5.07;;;3.92;;
43650;SDS011;29247;50.944;5.382;2022-08-05T06:46:58;5.18;;;3.38;;
43650;SDS011;29247;50.944;5.382;2022-08-05T06:49:26;4.90;;;3.72;;
43650;SDS011;29247;50.944;5.382;2022-08-05T06:51:55;9.77;;;3.70;;
43650;SDS011;29247;50.944;5.382;2022-08-05T06:54:21;5.45;;;3.25;;
43650;SDS011;29247;50.944;5.382;2022-08-05T06:56:47;6.22;;;3.13;;
43650;SDS011;29247;50.944;5.382;2022-08-05T06:59:13;6.53;;;3.33;;
43650;SDS011;29247;50.944;5.382;2022-08-05T07:01:39;4.30;;;3.20;;
43650;SDS011;29247;50.944;5.382;2022-08-05T07:04:10;5.32;;;3.42;;
43650;SDS011;29247;50.944;5.382;2022-08-05T07:06:39;4.00;;;3.22;;
43650;SDS011;29247;50.944;5.382;2022-08-05T07:09:04;7.20;;;4.35;;
43650;SDS011;29247;50.944;5.382;2022-08-05T07:11:31;4.15;;;3.22;;
43650;SDS011;29247;50.944;5.382;2022-08-05T07:13:59;6.43;;;3.40;;
43650;SDS011;29247;50.944;5.382;2022-08-05T07:16:46;6.60;;;3.38;;
43650;SDS011;29247;50.944;5.382;2022-08-05T07:19:19;7.35;;;4.05;;
43650;SDS011;29247;50.944;5.382;2022-08-05T07:21:49;4.65;;;2.95;;
43650;SDS011;29247;50.944;5.382;2022-08-05T07:24:15;7.13;;;3.43;;
43650;SDS011;29247;50.944;5.382;2022-08-05T07:26:44;8.35;;;3.30;;
43650;SDS011;29247;50.944;5.382;2022-08-05T07:29:10;4.53;;;3.22;;
43650;SDS011;29247;50.944;5.382;2022-08-05T07:31:36;5.20;;;3.30;;
43650;SDS011;29247;50.944;5.382;2022-08-05T07:34:03;4.72;;;2.92;;
43650;SDS011;29247;50.944;5.382;2022-08-05T07:36:29;4.85;;;3.05;;
43650;SDS011;29247;50.944;5.382;2022-08-05T07:38:57;4.43;;;3.20;;
43650;SDS011;29247;50.944;5.382;2022-08-05T07:41:31;4.28;;;3.03;;
43650;SDS011;29247;50.944;5.382;2022-08-05T07:43:57;6.45;;;3.28;;
43650;SDS011;29247;50.944;5.382;2022-08-05T07:46:24;8.40;;;3.08;;
43650;SDS011;29247;50.944;5.382;2022-08-05T07:48:52;7.22;;;3.50;;
43650;SDS011;29247;50.944;5.382;2022-08-05T07:51:23;8.80;;;3.70;;
43650;SDS011;29247;50.944;5.382;2022-08-05T07:53:54;5.38;;;2.80;;
43650;SDS011;29247;50.944;5.382;2022-08-05T07:56:22;5.53;;;3.10;;
43650;SDS011;29247;50.944;5.382;2022-08-05T07:58:48;3.50;;;3.20;;
43650;SDS011;29247;50.944;5.382;2022-08-05T08:01:17;6.85;;;3.10;;
43650;SDS011;29247;50.944;5.382;2022-08-05T08:03:46;6.22;;;3.30;;
43650;SDS011;29247;50.944;5.382;2022-08-05T08:06:13;8.00;;;3.45;;
43650;SDS011;29247;50.944;5.382;2022-08-05T08:08:46;6.35;;;3.50;;
43650;SDS011;29247;50.944;5.382;2022-08-05T08:11:15;8.48;;;3.92;;
43650;SDS011;29247;50.944;5.382;2022-08-05T08:13:43;5.68;;;3.08;;
43650;SDS011;29247;50.944;5.382;2022-08-05T08:16:11;5.35;;;3.72;;
43650;SDS011;29247;50.944;5.382;2022-08-05T08:18:41;7.50;;;3.70;;
43650;SDS011;29247;50.944;5.382;2022-08-05T08:21:07;6.25;;;3.40;;
43650;SDS011;29247;50.944;5.382;2022-08-05T08:23:35;7.10;;;3.80;;
43650;SDS011;29247;50.944;5.382;2022-08-05T08:26:04;7.05;;;3.90;;
43650;SDS011;29247;50.944;5.382;2022-08-05T08:28:32;9.80;;;4.22;;
43650;SDS011;29247;50.944;5.382;2022-08-05T08:31:00;6.13;;;3.80;;
43650;SDS011;29247;50.944;5.382;2022-08-05T08:33:25;6.85;;;4.00;;
43650;SDS011;29247;50.944;5.382;2022-08-05T08:35:51;5.80;;;3.45;;
43650;SDS011;29247;50.944;5.382;2022-08-05T08:38:17;6.00;;;4.28;;
43650;SDS011;29247;50.944;5.382;2022-08-05T08:40:42;5.78;;;3.65;;
43650;SDS011;29247;50.944;5.382;2022-08-05T08:43:10;4.95;;;4.00;;
43650;SDS011;29247;50.944;5.382;2022-08-05T08:45:39;8.68;;;4.25;;
43650;SDS011;29247;50.944;5.382;2022-08-05T08:48:07;8.10;;;4.38;;
43650;SDS011;29247;50.944;5.382;2022-08-05T08:50:38;9.20;;;3.88;;
43650;SDS011;29247;50.944;5.382;2022-08-05T08:53:06;6.47;;;4.07;;
43650;SDS011;29247;50.944;5.382;2022-08-05T08:55:36;5.28;;;4.15;;
43650;SDS011;29247;50.944;5.382;2022-08-05T08:58:03;6.85;;;4.60;;
43650;SDS011;29247;50.944;5.382;2022-08-05T09:00:29;8.90;;;4.65;;
43650;SDS011;29247;50.944;5.382;2022-08-05T09:02:55;9.48;;;4.10;;
43650;SDS011;29247;50.944;5.382;2022-08-05T09:05:24;5.85;;;4.70;;
43650;SDS011;29247;50.944;5.382;2022-08-05T09:07:54;6.30;;;4.15;;
43650;SDS011;29247;50.944;5.382;2022-08-05T09:10:21;7.80;;;4.07;;
43650;SDS011;29247;50.944;5.382;2022-08-05T09:12:47;5.18;;;4.13;;
43650;SDS011;29247;50.944;5.382;2022-08-05T09:15:13;5.50;;;4.20;;
43650;SDS011;29247;50.944;5.382;2022-08-05T09:17:39;7.97;;;4.60;;
43650;SDS011;29247;50.944;5.382;2022-08-05T09:20:07;6.47;;;3.58;;
43650;SDS011;29247;50.944;5.382;2022-08-05T09:25:33;6.68;;;4.70;;
43650;SDS011;29247;50.944;5.382;2022-08-05T09:28:13;6.75;;;4.60;;
43650;SDS011;29247;50.944;5.382;2022-08-05T09:30:57;8.50;;;4.63;;
43650;SDS011;29247;50.944;5.382;2022-08-05T09:33:31;9.43;;;5.18;;
43650;SDS011;29247;50.944;5.382;2022-08-05T09:36:01;5.60;;;4.47;;
43650;SDS011;29247;50.944;5.382;2022-08-05T09:38:31;7.70;;;4.93;;
43650;SDS011;29247;50.944;5.382;2022-08-05T09:41:06;6.47;;;4.45;;
43650;SDS011;29247;50.944;5.382;2022-08-05T09:43:35;6.40;;;4.15;;
43650;SDS011;29247;50.944;5.382;2022-08-05T09:46:03;5.60;;;3.92;;
43650;SDS011;29247;50.944;5.382;2022-08-05T09:48:34;7.43;;;4.03;;
43650;SDS011;29247;50.944;5.382;2022-08-05T09:51:06;9.63;;;3.85;;
43650;SDS011;29247;50.944;5.382;2022-08-05T09:53:51;7.28;;;4.07;;
43650;SDS011;29247;50.944;5.382;2022-08-05T09:56:28;5.20;;;4.28;;
43650;SDS011;29247;50.944;5.382;2022-08-05T10:01:28;8.52;;;5.07;;
43650;SDS011;29247;50.944;5.382;2022-08-05T10:04:04;8.23;;;4.33;;
43650;SDS011;29247;50.944;5.382;2022-08-05T10:06:36;6.13;;;3.95;;
43650;SDS011;29247;50.944;5.382;2022-08-05T10:09:15;6.88;;;3.65;;
43650;SDS011;29247;50.944;5.382;2022-08-05T10:11:43;8.98;;;3.80;;
43650;SDS011;29247;50.944;5.382;2022-08-05T10:14:21;7.03;;;3.15;;
43650;SDS011;29247;50.944;5.382;2022-08-05T10:17:12;6.20;;;3.38;;
43650;SDS011;29247;50.944;5.382;2022-08-05T10:19:43;5.25;;;3.08;;
43650;SDS011;29247;50.944;5.382;2022-08-05T10:22:12;6.10;;;3.60;;
43650;SDS011;29247;50.944;5.382;2022-08-05T10:24:38;8.18;;;3.10;;
43650;SDS011;29247;50.944;5.382;2022-08-05T10:27:03;4.05;;;2.53;;
43650;SDS011;29247;50.944;5.382;2022-08-05T10:29:31;3.15;;;2.30;;
43650;SDS011;29247;50.944;5.382;2022-08-05T10:32:00;6.43;;;2.28;;
43650;SDS011;29247;50.944;5.382;2022-08-05T10:34:33;5.75;;;2.75;;
43650;SDS011;29247;50.944;5.382;2022-08-05T10:36:59;3.03;;;2.05;;
43650;SDS011;29247;50.944;5.382;2022-08-05T10:39:29;2.85;;;2.05;;
43650;SDS011;29247;50.944;5.382;2022-08-05T10:42:09;2.63;;;1.77;;
43650;SDS011;29247;50.944;5.382;2022-08-05T10:44:49;5.22;;;1.70;;
43650;SDS011;29247;50.944;5.382;2022-08-05T10:47:15;3.25;;;1.95;;
43650;SDS011;29247;50.944;5.382;2022-08-05T10:52:39;2.67;;;1.80;;
43650;SDS011;29247;50.944;5.382;2022-08-05T10:55:21;3.90;;;1.90;;
43650;SDS011;29247;50.944;5.382;2022-08-05T10:58:06;5.30;;;2.55;;
43650;SDS011;29247;50.944;5.382;2022-08-05T11:00:35;2.90;;;1.90;;
43650;SDS011;29247;50.944;5.382;2022-08-05T11:05:31;4.18;;;2.15;;
43650;SDS011;29247;50.944;5.382;2022-08-05T11:08:00;3.88;;;2.17;;
43650;SDS011;29247;50.944;5.382;2022-08-05T11:10:31;5.38;;;1.98;;
43650;SDS011;29247;50.944;5.382;2022-08-05T11:13:01;4.18;;;1.90;;
43650;SDS011;29247;50.944;5.382;2022-08-05T11:15:28;3.75;;;1.95;;
43650;SDS011;29247;50.944;5.382;2022-08-05T11:18:07;2.97;;;2.10;;
43650;SDS011;29247;50.944;5.382;2022-08-05T11:20:53;2.00;;;1.88;;
43650;SDS011;29247;50.944;5.382;2022-08-05T11:28:35;5.88;;;2.20;;
43650;SDS011;29247;50.944;5.382;2022-08-05T11:36:07;5.72;;;1.83;;
43650;SDS011;29247;50.944;5.382;2022-08-05T11:43:56;3.75;;;1.45;;
43650;SDS011;29247;50.944;5.382;2022-08-05T11:46:41;2.40;;;1.63;;
43650;SDS011;29247;50.944;5.382;2022-08-05T11:49:16;2.85;;;1.60;;
43650;SDS011;29247;50.944;5.382;2022-08-05T11:51:44;3.70;;;1.80;;
43650;SDS011;29247;50.944;5.382;2022-08-05T11:54:20;4.70;;;1.80;;
43650;SDS011;29247;50.944;5.382;2022-08-05T11:56:53;2.53;;;1.30;;
43650;SDS011;29247;50.944;5.382;2022-08-05T11:59:24;3.40;;;1.40;;
43650;SDS011;29247;50.944;5.382;2022-08-05T12:04:25;2.85;;;1.40;;
43650;SDS011;29247;50.944;5.382;2022-08-05T12:07:07;2.67;;;1.20;;
43650;SDS011;29247;50.944;5.382;2022-08-05T12:09:36;3.00;;;1.20;;
43650;SDS011;29247;50.944;5.382;2022-08-05T12:12:08;1.95;;;1.17;;
43650;SDS011;29247;50.944;5.382;2022-08-05T12:14:37;3.20;;;1.48;;
43650;SDS011;29247;50.944;5.382;2022-08-05T12:17:06;2.88;;;1.00;;
43650;SDS011;29247;50.944;5.382;2022-08-05T12:22:10;2.53;;;1.10;;
43650;SDS011;29247;50.944;5.382;2022-08-05T12:24:48;3.50;;;1.20;;
43650;SDS011;29247;50.944;5.382;2022-08-05T12:27:19;1.42;;;1.05;;
43650;SDS011;29247;50.944;5.382;2022-08-05T12:30:04;2.63;;;1.17;;
43650;SDS011;29247;50.944;5.382;2022-08-05T12:32:34;2.47;;;1.10;;
43650;SDS011;29247;50.944;5.382;2022-08-05T12:35:09;1.38;;;0.95;;
43650;SDS011;29247;50.944;5.382;2022-08-05T12:37:35;1.33;;;1.17;;
43650;SDS011;29247;50.944;5.382;2022-08-05T12:40:07;1.33;;;0.90;;
43650;SDS011;29247;50.944;5.382;2022-08-05T12:42:38;1.40;;;0.90;;
43650;SDS011;29247;50.944;5.382;2022-08-05T12:45:09;2.25;;;1.00;;
43650;SDS011;29247;50.944;5.382;2022-08-05T12:47:36;1.25;;;1.00;;
43650;SDS011;29247;50.944;5.382;2022-08-05T12:50:15;5.28;;;1.50;;
43650;SDS011;29247;50.944;5.382;2022-08-05T12:52:56;3.75;;;1.10;;
43650;SDS011;29247;50.944;5.382;2022-08-05T12:55:26;0.98;;;0.88;;
43650;SDS011;29247;50.944;5.382;2022-08-05T12:57:55;3.30;;;0.87;;
43650;SDS011;29247;50.944;5.382;2022-08-05T13:00:25;1.00;;;0.85;;
43650;SDS011;29247;50.944;5.382;2022-08-05T13:02:57;2.90;;;0.80;;
43650;SDS011;29247;50.944;5.382;2022-08-05T13:05:24;1.38;;;0.70;;
43650;SDS011;29247;50.944;5.382;2022-08-05T13:07:51;3.90;;;0.85;;
43650;SDS011;29247;50.944;5.382;2022-08-05T13:12:48;1.90;;;0.80;;
43650;SDS011;29247;50.944;5.382;2022-08-05T13:15:14;1.52;;;0.90;;
43650;SDS011;29247;50.944;5.382;2022-08-05T13:17:39;2.63;;;1.02;;
43650;SDS011;29247;50.944;5.382;2022-08-05T13:20:17;1.08;;;0.90;;
43650;SDS011;29247;50.944;5.382;2022-08-05T13:22:51;1.58;;;0.90;;
43650;SDS011;29247;50.944;5.382;2022-08-05T13:28:43;0.73;;;0.73;;
43650;SDS011;29247;50.944;5.382;2022-08-05T13:31:09;2.30;;;0.85;;
43650;SDS011;29247;50.944;5.382;2022-08-05T13:33:34;2.85;;;0.80;;
43650;SDS011;29247;50.944;5.382;2022-08-05T13:36:00;1.08;;;0.98;;
43650;SDS011;29247;50.944;5.382;2022-08-05T13:38:30;2.10;;;0.90;;
43650;SDS011;29247;50.944;5.382;2022-08-05T13:40:58;1.92;;;1.10;;
43650;SDS011;29247;50.944;5.382;2022-08-05T13:43:26;2.33;;;0.95;;
43650;SDS011;29247;50.944;5.382;2022-08-05T13:45:53;5.72;;;0.80;;
43650;SDS011;29247;50.944;5.382;2022-08-05T13:48:21;1.88;;;0.90;;
43650;SDS011;29247;50.944;5.382;2022-08-05T13:50:47;0.80;;;0.80;;
43650;SDS011;29247;50.944;5.382;2022-08-05T13:53:13;2.33;;;0.90;;
43650;SDS011;29247;50.944;5.382;2022-08-05T13:55:39;3.63;;;0.80;;
43650;SDS011;29247;50.944;5.382;2022-08-05T13:58:05;3.05;;;0.98;;
43650;SDS011;29247;50.944;5.382;2022-08-05T14:00:33;3.17;;;0.88;;
43650;SDS011;29247;50.944;5.382;2022-08-05T14:03:00;0.68;;;0.60;;
43650;SDS011;29247;50.944;5.382;2022-08-05T14:05:28;1.33;;;0.90;;
43650;SDS011;29247;50.944;5.382;2022-08-05T14:07:54;3.17;;;0.80;;
43650;SDS011;29247;50.944;5.382;2022-08-05T14:10:21;3.33;;;1.10;;
43650;SDS011;29247;50.944;5.382;2022-08-05T14:15:16;1.35;;;0.88;;
43650;SDS011;29247;50.944;5.382;2022-08-05T14:17:47;1.88;;;0.77;;
43650;SDS011;29247;50.944;5.382;2022-08-05T14:20:18;1.00;;;0.90;;
43650;SDS011;29247;50.944;5.382;2022-08-05T14:22:44;4.00;;;0.77;;
43650;SDS011;29247;50.944;5.382;2022-08-05T14:25:10;0.68;;;0.68;;
43650;SDS011;29247;50.944;5.382;2022-08-05T14:27:37;1.90;;;0.73;;
43650;SDS011;29247;50.944;5.382;2022-08-05T14:30:03;0.98;;;0.70;;
43650;SDS011;29247;50.944;5.382;2022-08-05T14:32:29;1.98;;;0.70;;
43650;SDS011;29247;50.944;5.382;2022-08-05T14:34:57;0.93;;;0.90;;
43650;SDS011;29247;50.944;5.382;2022-08-05T14:37:26;2.70;;;0.60;;
43650;SDS011;29247;50.944;5.382;2022-08-05T14:39:58;1.27;;;0.75;;
43650;SDS011;29247;50.944;5.382;2022-08-05T14:42:23;0.73;;;0.73;;
43650;SDS011;29247;50.944;5.382;2022-08-05T14:44:50;2.10;;;0.80;;
43650;SDS011;29247;50.944;5.382;2022-08-05T14:47:18;1.27;;;0.80;;
43650;SDS011;29247;50.944;5.382;2022-08-05T14:49:46;1.98;;;0.55;;
43650;SDS011;29247;50.944;5.382;2022-08-05T14:52:14;0.98;;;0.60;;
43650;SDS011;29247;50.944;5.382;2022-08-05T14:54:42;1.42;;;0.68;;
43650;SDS011;29247;50.944;5.382;2022-08-05T14:57:08;0.77;;;0.73;;
43650;SDS011;29247;50.944;5.382;2022-08-05T14:59:35;1.50;;;0.75;;
43650;SDS011;29247;50.944;5.382;2022-08-05T15:02:01;1.98;;;0.75;;
43650;SDS011;29247;50.944;5.382;2022-08-05T15:04:28;4.72;;;0.68;;
43650;SDS011;29247;50.944;5.382;2022-08-05T15:06:57;1.48;;;0.60;;
43650;SDS011;29247;50.944;5.382;2022-08-05T15:09:24;2.42;;;0.70;;
43650;SDS011;29247;50.944;5.382;2022-08-05T15:11:50;2.33;;;0.60;;
43650;SDS011;29247;50.944;5.382;2022-08-05T15:14:18;1.80;;;0.70;;
43650;SDS011;29247;50.944;5.382;2022-08-05T15:16:44;1.60;;;0.70;;
43650;SDS011;29247;50.944;5.382;2022-08-05T15:19:10;3.25;;;0.85;;
43650;SDS011;29247;50.944;5.382;2022-08-05T15:21:36;1.85;;;0.60;;
43650;SDS011;29247;50.944;5.382;2022-08-05T15:24:04;1.38;;;0.60;;
43650;SDS011;29247;50.944;5.382;2022-08-05T15:26:30;2.10;;;0.88;;
43650;SDS011;29247;50.944;5.382;2022-08-05T15:28:58;0.80;;;0.60;;
43650;SDS011;29247;50.944;5.382;2022-08-05T15:31:23;1.95;;;0.70;;
43650;SDS011;29247;50.944;5.382;2022-08-05T15:33:49;0.88;;;0.60;;
43650;SDS011;29247;50.944;5.382;2022-08-05T15:36:17;0.60;;;0.60;;
43650;SDS011;29247;50.944;5.382;2022-08-05T15:38:43;2.97;;;0.50;;
43650;SDS011;29247;50.944;5.382;2022-08-05T15:41:09;1.45;;;0.60;;
43650;SDS011;29247;50.944;5.382;2022-08-05T15:43:35;1.05;;;0.47;;
43650;SDS011;29247;50.944;5.382;2022-08-05T15:46:00;1.40;;;0.77;;
43650;SDS011;29247;50.944;5.382;2022-08-05T15:48:26;0.50;;;0.50;;
43650;SDS011;29247;50.944;5.382;2022-08-05T15:50:55;0.75;;;0.57;;
43650;SDS011;29247;50.944;5.382;2022-08-05T15:53:23;2.75;;;0.70;;
43650;SDS011;29247;50.944;5.382;2022-08-05T15:55:49;0.40;;;0.40;;
43650;SDS011;29247;50.944;5.382;2022-08-05T15:58:16;3.35;;;0.70;;
43650;SDS011;29247;50.944;5.382;2022-08-05T16:00:43;0.63;;;0.63;;